Time;durP1;ratioP1;P1;durP2;ratioP2;P2;SDS_P1;SDS_P2;PMS_P1;PMS_P2;Temp;Humidity;BMP_temperature;BMP_pressure;BME280_temperature;BME280_humidity;BME280_pressure;Samples;Min_cycle;Max_cycle;Signal;HPM_P1;HPM_P2
2023/12/09 00:00:23;;;;;;;;;;;;;;;;;;5008292;28;20358;-57
2023/12/09 00:02:49;;;;;;;;;;;;;;;;;;5011454;28;20271;-58
2023/12/09 00:05:15;;;;;;;;;;;;;;;;;;4995859;28;20373;-59
2023/12/09 00:07:41;;;;;;;;;;;;;;;;;;5006618;28;19924;-57
2023/12/09 00:10:08;;;;;;;;;;;;;;;;;;5011372;28;20009;-58
2023/12/09 00:12:34;;;;;;;;;;;;;;;;;;5010421;28;20585;-58
2023/12/09 00:15:00;;;;;;;;;;;;;;;;;;5003462;28;19920;-56
2023/12/09 00:17:26;;;;;;;;;;;;;;;;;;4996147;28;19960;-56
2023/12/09 00:19:52;;;;;;;;;;;;;;;;;;4995636;28;20301;-53
2023/12/09 00:22:18;;;;;;;;;;;;;;;;;;5009791;28;20399;-53
2023/12/09 00:24:44;;;;;;;;;;;;;;;;;;4996120;28;19960;-55
2023/12/09 00:27:10;;;;;;;;;;;;;;;;;;5007196;28;19949;-56
2023/12/09 00:29:36;;;;;;;;;;;;;;;;;;5003795;28;19914;-53
2023/12/09 00:32:02;;;;;;;;;;;;;;;;;;5008772;28;19914;-57
2023/12/09 00:34:28;;;;;;;;;;;;;;;;;;4995802;28;20452;-55
2023/12/09 00:36:54;;;;;;;;;;;;;;;;;;5012498;28;19914;-55
2023/12/09 00:39:21;;;;;;;;;;;;;;;;;;5010889;28;19936;-55
2023/12/09 00:41:47;;;;;;;;;;;;;;;;;;4999261;28;20004;-57
2023/12/09 00:44:17;;;;;;;;;;;;;;;;;;4993113;28;19945;-53
2023/12/09 00:46:43;;;;;;;;;;;;;;;;;;4996679;28;19914;-59
2023/12/09 00:49:09;;;;;;;;;;;;;;;;;;5002969;28;19972;-59
2023/12/09 00:51:35;;;;;;;;;;;;;;;;;;4993285;28;19976;-60
2023/12/09 00:54:01;;;;;;;;;;;;;;;;;;5008548;28;19919;-57
2023/12/09 00:56:27;;;;;;;;;;;;;;;;;;5006233;28;19918;-58
2023/12/09 00:58:53;;;;;;;;;;;;;;;;;;5000198;28;19920;-58
2023/12/09 01:01:19;;;;;;;;;;;;;;;;;;5012677;28;20020;-59
2023/12/09 01:03:45;;;;;;;;;;;;;;;;;;5001812;28;20303;-57
2023/12/09 01:06:11;;;;;;;;;;;;;;;;;;5018835;28;19914;-56
2023/12/09 01:08:37;;;;;;;;;;;;;;;;;;5001991;28;19914;-57
2023/12/09 01:11:03;;;;;;;;;;;;;;;;;;5011372;28;20056;-59
2023/12/09 01:13:30;;;;;;;;;;;;;;;;;;5011689;28;19972;-58
2023/12/09 01:15:56;;;;;;;;;;;;;;;;;;5009992;28;19924;-57
2023/12/09 01:18:22;;;;;;;;;;;;;;;;;;5001859;28;20402;-57
2023/12/09 01:20:48;;;;;;;;;;;;;;;;;;5001140;28;20000;-54
2023/12/09 01:23:14;;;;;;;;;;;;;;;;;;5015717;28;19917;-56
2023/12/09 01:25:41;;;;;;;;;;;;;;;;;;5006201;28;20401;-55
2023/12/09 01:28:07;;;;;;;;;;;;;;;;;;5002811;28;19920;-56
2023/12/09 01:30:34;;;;;;;;;;;;;;;;;;5012102;28;20008;-54
2023/12/09 01:33:00;;;;;;;;;;;;;;;;;;5009406;28;19960;-59
2023/12/09 01:35:26;;;;;;;;;;;;;;;;;;5003089;28;19922;-55
2023/12/09 01:37:52;;;;;;;;;;;;;;;;;;5003765;28;20374;-58
2023/12/09 01:40:18;;;;;;;;;;;;;;;;;;5018504;28;19948;-57
2023/12/09 01:42:44;;;;;;;;;;;;;;;;;;5016768;28;19983;-54
2023/12/09 01:45:10;;;;;;;;;;;;;;;;;;5005694;28;19921;-56
2023/12/09 01:47:37;;;;;;;;;;;;;;;;;;5003099;28;19918;-57
2023/12/09 01:50:03;;;;;;;;;;;;;;;;;;5018724;28;20012;-58
2023/12/09 01:52:29;;;;;;;;;;;;;;;;;;5002575;28;19918;-55
2023/12/09 01:54:55;;;;;;;;;;;;;;;;;;5005569;28;19914;-54
2023/12/09 01:57:21;;;;;;;;;;;;;;;;;;5010485;28;20382;-56
2023/12/09 01:59:47;;;;;;;;;;;;;;;;;;5016118;28;19920;-54
2023/12/09 02:02:13;;;;;;;;;;;;;;;;;;5005012;28;20003;-52
2023/12/09 02:04:39;;;;;;;;;;;;;;;;;;5013955;28;20012;-57
2023/12/09 02:07:05;;;;;;;;;;;;;;;;;;5000358;28;20044;-60
2023/12/09 02:09:32;;;;;;;;;;;;;;;;;;5015585;28;19913;-54
2023/12/09 02:11:59;;;;;;;;;;;;;;;;;;5012435;28;19980;-55
2023/12/09 02:14:25;;;;;;;;;;;;;;;;;;5010298;28;19914;-60
2023/12/09 02:16:51;;;;;;;;;;;;;;;;;;5009406;28;20385;-52
2023/12/09 02:19:17;;;;;;;;;;;;;;;;;;5011761;28;20417;-54
2023/12/09 02:21:43;;;;;;;;;;;;;;;;;;5000406;28;20349;-57
2023/12/09 02:24:09;;;;;;;;;;;;;;;;;;5003129;28;19924;-55
2023/12/09 02:26:35;;;;;;;;;;;;;;;;;;5013121;28;20330;-57
2023/12/09 02:29:01;;;;;;;;;;;;;;;;;;5012596;28;19983;-56
2023/12/09 02:31:27;;;;;;;;;;;;;;;;;;4997896;28;19961;-57
2023/12/09 02:33:53;;;;;;;;;;;;;;;;;;5007959;28;20337;-59
2023/12/09 02:36:19;;;;;;;;;;;;;;;;;;5001630;28;20353;-57
2023/12/09 02:38:45;;;;;;;;;;;;;;;;;;4999699;28;19963;-57
2023/12/09 02:41:11;;;;;;;;;;;;;;;;;;5008159;28;19920;-57
2023/12/09 02:43:37;;;;;;;;;;;;;;;;;;5000904;28;20001;-56
2023/12/09 02:46:03;;;;;;;;;;;;;;;;;;5008424;28;19920;-58
2023/12/09 02:48:29;;;;;;;;;;;;;;;;;;5003661;28;19914;-57
2023/12/09 02:50:55;;;;;;;;;;;;;;;;;;4997199;28;20402;-54
2023/12/09 02:53:21;;;;;;;;;;;;;;;;;;5001495;28;20389;-56
2023/12/09 02:55:47;;;;;;;;;;;;;;;;;;5009431;28;20374;-56
2023/12/09 02:58:15;;;;;;;;;;;;;;;;;;4998510;28;20306;-58
2023/12/09 03:00:41;;;;;;;;;;;;;;;;;;4997255;28;20581;-57
2023/12/09 03:03:07;;;;;;;;;;;;;;;;;;4998824;28;19953;-58
2023/12/09 03:05:33;;;;;;;;;;;;;;;;;;5012808;28;19914;-55
2023/12/09 03:07:59;;;;;;;;;;;;;;;;;;5004206;28;20328;-55
2023/12/09 03:10:25;;;;;;;;;;;;;;;;;;5003991;28;19913;-57
2023/12/09 03:12:51;;;;;;;;;;;;;;;;;;5011155;28;20352;-55
2023/12/09 03:15:17;;;;;;;;;;;;;;;;;;5010326;28;19975;-57
2023/12/09 03:17:43;;;;;;;;;;;;;;;;;;4995234;28;19960;-57
2023/12/09 03:20:09;;;;;;;;;;;;;;;;;;5002941;28;19917;-57
2023/12/09 03:22:35;;;;;;;;;;;;;;;;;;4999023;28;19913;-58
2023/12/09 03:25:01;;;;;;;;;;;;;;;;;;4999179;28;19918;-58
2023/12/09 03:27:27;;;;;;;;;;;;;;;;;;5002277;28;19959;-52
2023/12/09 03:29:53;;;;;;;;;;;;;;;;;;4994801;28;19913;-56
2023/12/09 03:32:19;;;;;;;;;;;;;;;;;;4999138;28;20009;-58
2023/12/09 03:34:45;;;;;;;;;;;;;;;;;;4993997;28;19921;-57
2023/12/09 03:37:11;;;;;;;;;;;;;;;;;;5009876;28;20007;-57
2023/12/09 03:39:37;;;;;;;;;;;;;;;;;;5001127;28;20387;-57
2023/12/09 03:42:04;;;;;;;;;;;;;;;;;;5009691;28;19984;-58
2023/12/09 03:44:30;;;;;;;;;;;;;;;;;;4993702;28;19920;-56
2023/12/09 03:46:56;;;;;;;;;;;;;;;;;;5008026;28;19921;-56
2023/12/09 03:49:22;;;;;;;;;;;;;;;;;;5000338;28;20305;-60
2023/12/09 03:51:48;;;;;;;;;;;;;;;;;;4998355;28;19914;-56
2023/12/09 03:54:14;;;;;;;;;;;;;;;;;;4993622;28;19914;-57
2023/12/09 03:56:40;;;;;;;;;;;;;;;;;;5001947;28;20004;-57
2023/12/09 03:59:06;;;;;;;;;;;;;;;;;;5002565;28;19964;-57
2023/12/09 04:01:32;;;;;;;;;;;;;;;;;;5003980;28;19913;-58
2023/12/09 04:03:58;;;;;;;;;;;;;;;;;;4995059;28;19914;-57
2023/12/09 04:06:24;;;;;;;;;;;;;;;;;;4996142;28;19914;-56
2023/12/09 04:08:50;;;;;;;;;;;;;;;;;;5000406;28;19921;-57
2023/12/09 04:11:16;;;;;;;;;;;;;;;;;;5007916;28;19918;-61
2023/12/09 04:13:42;;;;;;;;;;;;;;;;;;4994293;28;19976;-61
2023/12/09 04:16:08;;;;;;;;;;;;;;;;;;5005368;28;19917;-59
2023/12/09 04:18:36;;;;;;;;;;;;;;;;;;4992224;28;20055;-60
2023/12/09 04:21:03;;;;;;;;;;;;;;;;;;5001330;28;20291;-59
2023/12/09 04:23:29;;;;;;;;;;;;;;;;;;4993710;28;19918;-58
2023/12/09 04:25:55;;;;;;;;;;;;;;;;;;5004486;28;20305;-56
2023/12/09 04:28:21;;;;;;;;;;;;;;;;;;4998974;28;20301;-56
2023/12/09 04:30:47;;;;;;;;;;;;;;;;;;4998835;28;19975;-54
2023/12/09 04:33:13;;;;;;;;;;;;;;;;;;5010463;28;19914;-56
2023/12/09 04:35:39;;;;;;;;;;;;;;;;;;5010855;28;19975;-59
2023/12/09 04:38:05;;;;;;;;;;;;;;;;;;5008401;28;19914;-58
2023/12/09 04:40:31;;;;;;;;;;;;;;;;;;4996468;28;19984;-58
2023/12/09 04:42:57;;;;;;;;;;;;;;;;;;5009760;28;20329;-56
2023/12/09 04:45:23;;;;;;;;;;;;;;;;;;5000786;28;19928;-55
2023/12/09 04:47:50;;;;;;;;;;;;;;;;;;4999129;28;19924;-58
2023/12/09 04:50:16;;;;;;;;;;;;;;;;;;4982511;28;19913;-52
2023/12/09 04:52:42;;;;;;;;;;;;;;;;;;4994184;28;20363;-57
2023/12/09 04:55:09;;;;;;;;;;;;;;;;;;4991312;28;19914;-54
2023/12/09 04:57:35;;;;;;;;;;;;;;;;;;5003954;28;19913;-58
2023/12/09 05:00:03;;;;;;;;;;;;;;;;;;4997994;28;19972;-58
2023/12/09 05:02:29;;;;;;;;;;;;;;;;;;5002453;28;20019;-58
2023/12/09 05:04:55;;;;;;;;;;;;;;;;;;5003369;28;20060;-58
2023/12/09 05:07:25;;;;;;;;;;;;;;;;;;5002717;28;19921;-58
2023/12/09 05:09:51;;;;;;;;;;;;;;;;;;4997585;28;20433;-56
2023/12/09 05:12:17;;;;;;;;;;;;;;;;;;5005317;28;19937;-58
2023/12/09 05:14:43;;;;;;;;;;;;;;;;;;4996164;28;20301;-59
2023/12/09 05:17:11;;;;;;;;;;;;;;;;;;5008334;28;19988;-59
2023/12/09 05:19:37;;;;;;;;;;;;;;;;;;4998332;28;19913;-52
2023/12/09 05:22:03;;;;;;;;;;;;;;;;;;4998451;28;19963;-51
2023/12/09 05:24:29;;;;;;;;;;;;;;;;;;4995166;28;19918;-56
2023/12/09 05:26:57;;;;;;;;;;;;;;;;;;4991152;28;19924;-52
2023/12/09 05:29:23;;;;;;;;;;;;;;;;;;5000143;28;20298;-53
2023/12/09 05:31:49;;;;;;;;;;;;;;;;;;5007716;28;20275;-53
2023/12/09 05:34:15;;;;;;;;;;;;;;;;;;5003331;28;19914;-56
2023/12/09 05:36:41;;;;;;;;;;;;;;;;;;5006789;28;19918;-54
2023/12/09 05:39:07;;;;;;;;;;;;;;;;;;4998280;28;19977;-53
2023/12/09 05:41:33;;;;;;;;;;;;;;;;;;4993648;28;19914;-55
2023/12/09 05:43:59;;;;;;;;;;;;;;;;;;5000565;28;20382;-58
2023/12/09 05:46:25;;;;;;;;;;;;;;;;;;5006825;28;19920;-55
2023/12/09 05:48:51;;;;;;;;;;;;;;;;;;5006602;28;19968;-56
2023/12/09 05:51:17;;;;;;;;;;;;;;;;;;5013762;28;19928;-55
2023/12/09 05:53:43;;;;;;;;;;;;;;;;;;5000386;28;19913;-57
2023/12/09 05:56:11;;;;;;;;;;;;;;;;;;5002431;28;19976;-55
2023/12/09 05:58:37;;;;;;;;;;;;;;;;;;5000425;28;19913;-54
2023/12/09 06:01:03;;;;;;;;;;;;;;;;;;5007603;28;19941;-56
2023/12/09 06:03:29;;;;;;;;;;;;;;;;;;5005142;28;19973;-56
2023/12/09 06:05:57;;;;;;;;;;;;;;;;;;5003595;28;20008;-51
2023/12/09 06:08:23;;;;;;;;;;;;;;;;;;5013999;28;19920;-57
2023/12/09 06:10:49;;;;;;;;;;;;;;;;;;4998719;28;20416;-51
2023/12/09 06:13:15;;;;;;;;;;;;;;;;;;5002764;28;19943;-53
2023/12/09 06:15:41;;;;;;;;;;;;;;;;;;5003527;28;19988;-52
2023/12/09 06:18:08;;;;;;;;;;;;;;;;;;5005260;28;19948;-49
2023/12/09 06:20:34;;;;;;;;;;;;;;;;;;5011061;28;19913;-47
2023/12/09 06:23:00;;;;;;;;;;;;;;;;;;5013738;28;20394;-48
2023/12/09 06:25:26;;;;;;;;;;;;;;;;;;5011530;28;19917;-49
2023/12/09 06:27:53;;;;;;;;;;;;;;;;;;5011326;28;19920;-49
2023/12/09 06:30:19;;;;;;;;;;;;;;;;;;5013843;28;20003;-47
2023/12/09 06:32:45;;;;;;;;;;;;;;;;;;5002506;28;19921;-48
2023/12/09 06:35:11;;;;;;;;;;;;;;;;;;5013068;28;19921;-47
2023/12/09 06:37:37;;;;;;;;;;;;;;;;;;4996638;28;19945;-47
2023/12/09 06:40:03;;;;;;;;;;;;;;;;;;5014352;28;19919;-47
2023/12/09 06:42:30;;;;;;;;;;;;;;;;;;5007454;28;19964;-53
2023/12/09 06:44:56;;;;;;;;;;;;;;;;;;5013482;28;19913;-55
2023/12/09 06:47:23;;;;;;;;;;;;;;;;;;5006393;28;19914;-55
2023/12/09 06:49:50;;;;;;;;;;;;;;;;;;5013690;28;19928;-54
2023/12/09 06:52:16;;;;;;;;;;;;;;;;;;5014297;28;19917;-55
2023/12/09 06:54:42;;;;;;;;;;;;;;;;;;5013698;28;20394;-57
2023/12/09 06:57:09;;;;;;;;;;;;;;;;;;5013981;28;19917;-55
2023/12/09 06:59:35;;;;;;;;;;;;;;;;;;5012654;28;19921;-52
2023/12/09 07:02:01;;;;;;;;;;;;;;;;;;5014406;28;19981;-55
2023/12/09 07:04:27;;;;;;;;;;;;;;;;;;5013440;28;19918;-56
2023/12/09 07:06:53;;;;;;;;;;;;;;;;;;5014133;28;19913;-55
2023/12/09 07:09:19;;;;;;;;;;;;;;;;;;5013712;28;20400;-54
2023/12/09 07:11:45;;;;;;;;;;;;;;;;;;5014326;28;20320;-55
2023/12/09 07:14:15;;;;;;;;;;;;;;;;;;5013477;28;20382;-56
2023/12/09 07:16:41;;;;;;;;;;;;;;;;;;5013831;28;20075;-54
2023/12/09 07:19:07;;;;;;;;;;;;;;;;;;5013427;28;20255;-54
2023/12/09 07:21:33;;;;;;;;;;;;;;;;;;5005250;28;20012;-57
2023/12/09 07:23:59;;;;;;;;;;;;;;;;;;5005862;28;19925;-57
2023/12/09 07:26:25;;;;;;;;;;;;;;;;;;5013088;28;20382;-58
2023/12/09 07:28:51;;;;;;;;;;;;;;;;;;5010210;28;20358;-55
2023/12/09 07:31:17;;;;;;;;;;;;;;;;;;5005973;28;20359;-56
2023/12/09 07:33:43;;;;;;;;;;;;;;;;;;5005919;28;19968;-56
2023/12/09 07:36:09;;;;;;;;;;;;;;;;;;5002753;28;19922;-57
2023/12/09 07:38:35;;;;;;;;;;;;;;;;;;5004147;28;19914;-54
2023/12/09 07:41:01;;;;;;;;;;;;;;;;;;5013521;28;19913;-57
2023/12/09 07:43:27;;;;;;;;;;;;;;;;;;5005704;28;19913;-58
2023/12/09 07:45:53;;;;;;;;;;;;;;;;;;5013499;28;19914;-57
2023/12/09 07:48:19;;;;;;;;;;;;;;;;;;5012174;28;20003;-60
2023/12/09 07:50:45;;;;;;;;;;;;;;;;;;5010250;28;19921;-54
2023/12/09 07:53:11;;;;;;;;;;;;;;;;;;5007931;28;19976;-60
2023/12/09 07:55:37;;;;;;;;;;;;;;;;;;5011311;28;20275;-59
2023/12/09 07:58:04;;;;;;;;;;;;;;;;;;5011928;28;20380;-57
2023/12/09 08:00:31;;;;;;;;;;;;;;;;;;5013144;28;19964;-58
2023/12/09 08:02:57;;;;;;;;;;;;;;;;;;5012603;28;19921;-54
2023/12/09 08:05:23;;;;;;;;;;;;;;;;;;5011706;28;19916;-61
2023/12/09 08:07:49;;;;;;;;;;;;;;;;;;5012014;28;19917;-61
2023/12/09 08:10:15;;;;;;;;;;;;;;;;;;5013085;28;19913;-56
2023/12/09 08:12:41;;;;;;;;;;;;;;;;;;5012391;28;19910;-55
2023/12/09 08:15:07;;;;;;;;;;;;;;;;;;5011551;28;19914;-55
2023/12/09 08:17:33;;;;;;;;;;;;;;;;;;5012086;28;20370;-56
2023/12/09 08:20:00;;;;;;;;;;;;;;;;;;5012395;28;19925;-57
2023/12/09 08:22:26;;;;;;;;;;;;;;;;;;5010491;28;19921;-57
2023/12/09 08:24:52;;;;;;;;;;;;;;;;;;5011630;28;19976;-61
2023/12/09 08:27:18;;;;;;;;;;;;;;;;;;5010949;28;19918;-54
2023/12/09 08:29:45;;;;;;;;;;;;;;;;;;5007903;28;20278;-56
2023/12/09 08:32:19;;;;;;;;;;;;;;;;;;5012014;28;20425;-57
2023/12/09 08:34:46;;;;;;;;;;;;;;;;;;4994993;28;19969;-54
2023/12/09 08:37:12;;;;;;;;;;;;;;;;;;5005239;28;19937;-55
2023/12/09 08:39:38;;;;;;;;;;;;;;;;;;5005980;28;19914;-59
2023/12/09 08:42:04;;;;;;;;;;;;;;;;;;5006970;28;20334;-56
2023/12/09 08:44:30;;;;;;;;;;;;;;;;;;4992619;28;19914;-54
2023/12/09 08:46:57;;;;;;;;;;;;;;;;;;4991640;28;19914;-54
2023/12/09 08:49:23;;;;;;;;;;;;;;;;;;4975620;28;19914;-57
2023/12/09 08:51:50;;;;;;;;;;;;;;;;;;4992962;28;19925;-58
2023/12/09 08:54:16;;;;;;;;;;;;;;;;;;4991514;28;19910;-58
2023/12/09 08:56:42;;;;;;;;;;;;;;;;;;5012214;28;19917;-54
2023/12/09 08:59:09;;;;;;;;;;;;;;;;;;5010235;28;20006;-60
2023/12/09 09:01:35;;;;;;;;;;;;;;;;;;4993998;28;20292;-58
2023/12/09 09:04:01;;;;;;;;;;;;;;;;;;4992672;28;19917;-58
2023/12/09 09:06:27;;;;;;;;;;;;;;;;;;4991463;28;19913;-52
2023/12/09 09:08:53;;;;;;;;;;;;;;;;;;4981219;28;19913;-53
2023/12/09 09:11:22;;;;;;;;;;;;;;;;;;4996090;28;19991;-57
2023/12/09 09:13:48;;;;;;;;;;;;;;;;;;5006794;28;19945;-61
2023/12/09 09:16:14;;;;;;;;;;;;;;;;;;5009031;28;19917;-57
2023/12/09 09:18:42;;;;;;;;;;;;;;;;;;5007104;28;20070;-56
2023/12/09 09:21:08;;;;;;;;;;;;;;;;;;5011422;28;19964;-55
2023/12/09 09:23:35;;;;;;;;;;;;;;;;;;5003516;28;19914;-55
2023/12/09 09:26:01;;;;;;;;;;;;;;;;;;4996334;28;20001;-57
2023/12/09 09:28:27;;;;;;;;;;;;;;;;;;5002020;28;20370;-52
2023/12/09 09:30:53;;;;;;;;;;;;;;;;;;5014401;28;20374;-56
2023/12/09 09:33:19;;;;;;;;;;;;;;;;;;5005120;28;19972;-57
2023/12/09 09:35:48;;;;;;;;;;;;;;;;;;4983036;28;20272;-57
2023/12/09 09:38:14;;;;;;;;;;;;;;;;;;5007603;28;20004;-57
2023/12/09 09:40:40;;;;;;;;;;;;;;;;;;5007453;28;20346;-60
2023/12/09 09:43:07;;;;;;;;;;;;;;;;;;5003442;28;19953;-58
2023/12/09 09:45:33;;;;;;;;;;;;;;;;;;5007923;28;19913;-59
2023/12/09 09:47:59;;;;;;;;;;;;;;;;;;5012080;28;20382;-60
2023/12/09 09:50:25;;;;;;;;;;;;;;;;;;5007894;28;19917;-58
2023/12/09 09:52:51;;;;;;;;;;;;;;;;;;5002121;28;20012;-55
2023/12/09 09:55:17;;;;;;;;;;;;;;;;;;5002955;28;19918;-55
2023/12/09 09:57:43;;;;;;;;;;;;;;;;;;5006443;28;20314;-56
2023/12/09 10:00:14;;;;;;;;;;;;;;;;;;4994429;28;20306;-56
2023/12/09 10:02:40;;;;;;;;;;;;;;;;;;5004883;28;20381;-53
2023/12/09 10:05:06;;;;;;;;;;;;;;;;;;5007402;28;19975;-55
2023/12/09 10:07:32;;;;;;;;;;;;;;;;;;4993002;28;19913;-57
2023/12/09 10:09:58;;;;;;;;;;;;;;;;;;4996745;28;19910;-56
2023/12/09 10:12:26;;;;;;;;;;;;;;;;;;5004976;28;19913;-55
2023/12/09 10:14:52;;;;;;;;;;;;;;;;;;4994050;28;20302;-55
2023/12/09 10:17:18;;;;;;;;;;;;;;;;;;5007456;28;19996;-58
2023/12/09 10:19:45;;;;;;;;;;;;;;;;;;5010800;28;19941;-61
2023/12/09 10:22:11;;;;;;;;;;;;;;;;;;5008083;28;19914;-61
2023/12/09 10:24:37;;;;;;;;;;;;;;;;;;4992626;28;19909;-57
2023/12/09 10:27:03;;;;;;;;;;;;;;;;;;5077564;23;19936;-49
2023/12/09 10:29:29;;;;;;;;;;;;;;;;;;5048228;28;20028;-47
2023/12/09 10:31:55;;;;;;;;;;;;;;;;;;5045813;28;19921;-51
2023/12/09 10:34:21;;;;;;;;;;;;;;;;;;5034056;28;19917;-49
2023/12/09 10:36:47;;;;;;;;;;;;;;;;;;5050319;28;20308;-51
2023/12/09 10:39:13;;;;;;;;;;;;;;;;;;5033997;28;19963;-48
2023/12/09 10:41:39;;;;;;;;;;;;;;;;;;5040250;28;19924;-48
2023/12/09 10:44:05;;;;;;;;;;;;;;;;;;5051317;28;19917;-49
2023/12/09 10:46:32;;;;;;;;;;;;;;;;;;5043322;28;19952;-48
2023/12/09 10:48:58;;;;;;;;;;;;;;;;;;5032674;28;19924;-48
2023/12/09 10:51:26;;;;;;;;;;;;;;;;;;5038302;28;19924;-51
2023/12/09 10:53:52;;;;;;;;;;;;;;;;;;5042672;28;19924;-48
2023/12/09 10:56:18;;;;;;;;;;;;;;;;;;5041008;28;19920;-50
2023/12/09 10:58:44;;;;;;;;;;;;;;;;;;5032507;28;19960;-51
2023/12/09 11:01:10;;;;;;;;;;;;;;;;;;5034910;28;20428;-51
2023/12/09 11:03:36;;;;;;;;;;;;;;;;;;5044568;28;19917;-50
2023/12/09 11:06:02;;;;;;;;;;;;;;;;;;5045824;28;19913;-51
2023/12/09 11:08:29;;;;;;;;;;;;;;;;;;5051071;28;19924;-52
2023/12/09 11:10:55;;;;;;;;;;;;;;;;;;5044746;28;19913;-51
2023/12/09 11:13:21;;;;;;;;;;;;;;;;;;5042924;28;20015;-50
2023/12/09 11:15:47;;;;;;;;;;;;;;;;;;5038177;28;19920;-50
2023/12/09 11:18:16;;;;;;;;;;;;;;;;;;5047646;28;20011;-50
2023/12/09 11:20:43;;;;;;;;;;;;;;;;;;5036391;28;19917;-50
2023/12/09 11:23:10;;;;;;;;;;;;;;;;;;5040760;28;20451;-49
2023/12/09 11:25:36;;;;;;;;;;;;;;;;;;5040693;28;19953;-48
2023/12/09 11:28:03;;;;;;;;;;;;;;;;;;5042858;28;19939;-48
2023/12/09 11:30:30;;;;;;;;;;;;;;;;;;5034100;28;20360;-48
2023/12/09 11:32:56;;;;;;;;;;;;;;;;;;5029940;28;19917;-49
2023/12/09 11:35:22;;;;;;;;;;;;;;;;;;5031780;28;19920;-49
2023/12/09 11:37:48;;;;;;;;;;;;;;;;;;5038408;28;19917;-49
2023/12/09 11:40:14;;;;;;;;;;;;;;;;;;5050075;28;19924;-48
2023/12/09 11:42:40;;;;;;;;;;;;;;;;;;5047768;28;19917;-48
2023/12/09 11:45:06;;;;;;;;;;;;;;;;;;5051434;28;20481;-48
2023/12/09 11:47:32;;;;;;;;;;;;;;;;;;5048938;28;19916;-48
2023/12/09 11:49:58;;;;;;;;;;;;;;;;;;5051607;28;19917;-48
2023/12/09 11:52:25;;;;;;;;;;;;;;;;;;5043399;28;19917;-48
2023/12/09 11:54:51;;;;;;;;;;;;;;;;;;5038626;28;19983;-48
2023/12/09 11:57:17;;;;;;;;;;;;;;;;;;5049003;28;19921;-48
2023/12/09 11:59:44;;;;;;;;;;;;;;;;;;5049295;28;19970;-48
2023/12/09 12:02:10;;;;;;;;;;;;;;;;;;5049735;28;19919;-48
2023/12/09 12:04:36;;;;;;;;;;;;;;;;;;5045755;28;19944;-47
2023/12/09 12:07:02;;;;;;;;;;;;;;;;;;5031637;28;20324;-47
2023/12/09 12:09:28;;;;;;;;;;;;;;;;;;5039106;28;20348;-48
2023/12/09 12:11:54;;;;;;;;;;;;;;;;;;5034674;28;19913;-48
2023/12/09 12:14:21;;;;;;;;;;;;;;;;;;5047738;28;20443;-47
2023/12/09 12:16:47;;;;;;;;;;;;;;;;;;5049377;28;20012;-48
2023/12/09 12:19:13;;;;;;;;;;;;;;;;;;5046021;28;19921;-49
2023/12/09 12:21:39;;;;;;;;;;;;;;;;;;5051137;28;19917;-50
2023/12/09 12:24:05;;;;;;;;;;;;;;;;;;5048249;28;19915;-50
2023/12/09 12:26:32;;;;;;;;;;;;;;;;;;5049420;28;19917;-51
2023/12/09 12:28:58;;;;;;;;;;;;;;;;;;5043795;28;19925;-52
2023/12/09 12:31:25;;;;;;;;;;;;;;;;;;5045336;28;20296;-49
2023/12/09 12:33:51;;;;;;;;;;;;;;;;;;5046693;28;19917;-49
2023/12/09 12:36:17;;;;;;;;;;;;;;;;;;5040505;28;19921;-48
2023/12/09 12:38:46;;;;;;;;;;;;;;;;;;5042892;28;19913;-48
2023/12/09 12:41:12;;;;;;;;;;;;;;;;;;5030747;28;19962;-49
2023/12/09 12:43:39;;;;;;;;;;;;;;;;;;5029357;28;19913;-48
2023/12/09 12:46:05;;;;;;;;;;;;;;;;;;5033694;28;19909;-48
2023/12/09 12:48:31;;;;;;;;;;;;;;;;;;5046373;28;19944;-48
2023/12/09 12:50:57;;;;;;;;;;;;;;;;;;5035573;28;20274;-48
2023/12/09 12:53:24;;;;;;;;;;;;;;;;;;5046177;28;19995;-49
2023/12/09 12:55:54;;;;;;;;;;;;;;;;;;5031817;28;19917;-48
2023/12/09 12:58:20;;;;;;;;;;;;;;;;;;5033959;28;19924;-51
2023/12/09 13:00:49;;;;;;;;;;;;;;;;;;5048970;28;20711;-49
2023/12/09 13:03:15;;;;;;;;;;;;;;;;;;5050207;28;20381;-49
2023/12/09 13:05:41;;;;;;;;;;;;;;;;;;5041381;28;19921;-48
2023/12/09 13:08:07;;;;;;;;;;;;;;;;;;5031303;28;19913;-49
2023/12/09 13:10:33;;;;;;;;;;;;;;;;;;5050503;28;19967;-49
2023/12/09 13:12:59;;;;;;;;;;;;;;;;;;5050221;28;19909;-49
2023/12/09 13:15:25;;;;;;;;;;;;;;;;;;5045688;28;19917;-49
2023/12/09 13:17:51;;;;;;;;;;;;;;;;;;5047451;28;19923;-48
2023/12/09 13:20:17;;;;;;;;;;;;;;;;;;5048773;28;19955;-49
2023/12/09 13:22:45;;;;;;;;;;;;;;;;;;5050108;28;19923;-49
2023/12/09 13:25:13;;;;;;;;;;;;;;;;;;5048666;28;19917;-48
2023/12/09 13:27:39;;;;;;;;;;;;;;;;;;5037519;28;19917;-49
2023/12/09 13:30:06;;;;;;;;;;;;;;;;;;5032823;28;19921;-48
2023/12/09 13:32:32;;;;;;;;;;;;;;;;;;5036100;28;19928;-49
2023/12/09 13:34:58;;;;;;;;;;;;;;;;;;5034832;28;19970;-48
2023/12/09 13:37:24;;;;;;;;;;;;;;;;;;5036192;28;20301;-49
2023/12/09 13:39:51;;;;;;;;;;;;;;;;;;5032700;28;19924;-48
2023/12/09 13:42:17;;;;;;;;;;;;;;;;;;5049927;28;19932;-50
2023/12/09 13:44:43;;;;;;;;;;;;;;;;;;5050170;28;20019;-53
2023/12/09 13:47:09;;;;;;;;;;;;;;;;;;5045538;28;19917;-50
2023/12/09 13:49:35;;;;;;;;;;;;;;;;;;5038977;28;19924;-49
2023/12/09 13:52:01;;;;;;;;;;;;;;;;;;5032746;28;19917;-51
2023/12/09 13:54:28;;;;;;;;;;;;;;;;;;5048519;28;19917;-50
2023/12/09 13:56:54;;;;;;;;;;;;;;;;;;5035952;28;19921;-49
2023/12/09 13:59:20;;;;;;;;;;;;;;;;;;5048946;28;19920;-49
2023/12/09 14:01:46;;;;;;;;;;;;;;;;;;5045658;28;19917;-50
2023/12/09 14:04:12;;;;;;;;;;;;;;;;;;5043986;28;19925;-51
2023/12/09 14:06:38;;;;;;;;;;;;;;;;;;5042939;28;19971;-48
2023/12/09 14:09:07;;;;;;;;;;;;;;;;;;5033588;28;20381;-48
2023/12/09 14:11:33;;;;;;;;;;;;;;;;;;5049475;28;19913;-48
2023/12/09 14:13:59;;;;;;;;;;;;;;;;;;5053027;28;19995;-48
2023/12/09 14:16:25;;;;;;;;;;;;;;;;;;5051550;28;19917;-49
2023/12/09 14:18:52;;;;;;;;;;;;;;;;;;5051810;28;20011;-48
2023/12/09 14:21:18;;;;;;;;;;;;;;;;;;5039170;28;19925;-49
2023/12/09 14:23:44;;;;;;;;;;;;;;;;;;5034347;28;19960;-48
2023/12/09 14:26:10;;;;;;;;;;;;;;;;;;5034177;28;19970;-48
2023/12/09 14:28:36;;;;;;;;;;;;;;;;;;5039259;28;19913;-49
2023/12/09 14:31:02;;;;;;;;;;;;;;;;;;5044159;28;19924;-48
2023/12/09 14:33:28;;;;;;;;;;;;;;;;;;5050959;28;19960;-49
2023/12/09 14:35:54;;;;;;;;;;;;;;;;;;5034906;28;19920;-50
2023/12/09 14:38:21;;;;;;;;;;;;;;;;;;5034156;28;20055;-49
2023/12/09 14:40:47;;;;;;;;;;;;;;;;;;5042814;28;20292;-48
2023/12/09 14:43:13;;;;;;;;;;;;;;;;;;5049714;28;19995;-49
2023/12/09 14:45:39;;;;;;;;;;;;;;;;;;5035130;28;19913;-49
2023/12/09 14:48:05;;;;;;;;;;;;;;;;;;5032989;28;19919;-49
2023/12/09 14:50:31;;;;;;;;;;;;;;;;;;5036194;28;20393;-49
2023/12/09 14:52:57;;;;;;;;;;;;;;;;;;5040271;28;19994;-48
2023/12/09 14:55:23;;;;;;;;;;;;;;;;;;5052654;28;19913;-49
2023/12/09 14:57:49;;;;;;;;;;;;;;;;;;5045642;28;20009;-52
2023/12/09 15:00:15;;;;;;;;;;;;;;;;;;5033665;28;19959;-48
2023/12/09 15:02:41;;;;;;;;;;;;;;;;;;5030673;28;19924;-49
2023/12/09 15:05:08;;;;;;;;;;;;;;;;;;5046381;28;19917;-49
2023/12/09 15:07:34;;;;;;;;;;;;;;;;;;5040721;28;19916;-49
2023/12/09 15:10:00;;;;;;;;;;;;;;;;;;5050576;28;19917;-49
2023/12/09 15:12:26;;;;;;;;;;;;;;;;;;5040462;28;19921;-48
2023/12/09 15:14:52;;;;;;;;;;;;;;;;;;5052190;28;20015;-49
2023/12/09 15:17:20;;;;;;;;;;;;;;;;;;5048270;28;19924;-52
2023/12/09 15:19:46;;;;;;;;;;;;;;;;;;5044377;28;19924;-49
2023/12/09 15:22:12;;;;;;;;;;;;;;;;;;5043386;28;20776;-49
2023/12/09 15:24:38;;;;;;;;;;;;;;;;;;5037889;28;19917;-49
2023/12/09 15:27:04;;;;;;;;;;;;;;;;;;5048939;28;20075;-49
2023/12/09 15:29:30;;;;;;;;;;;;;;;;;;5033859;28;19959;-49
2023/12/09 15:31:57;;;;;;;;;;;;;;;;;;5046920;28;20559;-49
2023/12/09 15:34:23;;;;;;;;;;;;;;;;;;5051267;28;19928;-52
2023/12/09 15:36:49;;;;;;;;;;;;;;;;;;5045416;28;19928;-52
2023/12/09 15:39:17;;;;;;;;;;;;;;;;;;5033118;28;19959;-50
2023/12/09 15:41:44;;;;;;;;;;;;;;;;;;5034196;28;19963;-51
2023/12/09 15:44:10;;;;;;;;;;;;;;;;;;5049959;28;19921;-49
2023/12/09 15:46:36;;;;;;;;;;;;;;;;;;5048600;28;19923;-52
2023/12/09 15:49:02;;;;;;;;;;;;;;;;;;5046932;28;19940;-51
2023/12/09 15:51:28;;;;;;;;;;;;;;;;;;5051660;28;19919;-49
2023/12/09 15:53:54;;;;;;;;;;;;;;;;;;5040365;28;20330;-49
2023/12/09 15:56:21;;;;;;;;;;;;;;;;;;5031431;28;20386;-52
2023/12/09 15:58:47;;;;;;;;;;;;;;;;;;5041045;28;19912;-51
2023/12/09 16:01:13;;;;;;;;;;;;;;;;;;5044436;28;20017;-49
2023/12/09 16:03:40;;;;;;;;;;;;;;;;;;5032472;28;19920;-49
2023/12/09 16:06:07;;;;;;;;;;;;;;;;;;5036630;28;20270;-49
2023/12/09 16:08:34;;;;;;;;;;;;;;;;;;5032428;28;19913;-50
2023/12/09 16:11:00;;;;;;;;;;;;;;;;;;5031323;28;19992;-49
2023/12/09 16:13:27;;;;;;;;;;;;;;;;;;5035270;28;20011;-49
2023/12/09 16:15:53;;;;;;;;;;;;;;;;;;5034679;28;19929;-51
2023/12/09 16:18:19;;;;;;;;;;;;;;;;;;5031536;28;20276;-52
2023/12/09 16:20:46;;;;;;;;;;;;;;;;;;5039337;28;20015;-51
2023/12/09 16:23:12;;;;;;;;;;;;;;;;;;5048711;28;19963;-50
2023/12/09 16:25:38;;;;;;;;;;;;;;;;;;5037624;23;19923;-49
2023/12/09 16:28:05;;;;;;;;;;;;;;;;;;5021176;28;20040;-48
2023/12/09 16:30:31;;;;;;;;;;;;;;;;;;5021874;28;19928;-49
2023/12/09 16:32:57;;;;;;;;;;;;;;;;;;5008841;28;20293;-49
2023/12/09 16:35:23;;;;;;;;;;;;;;;;;;5028288;28;19922;-51
2023/12/09 16:37:49;;;;;;;;;;;;;;;;;;5019891;28;20365;-50